createdAt,value
2023-05-08T00:01:30.040Z,2.22
2023-05-08T00:03:57.277Z,2.55
2023-05-08T00:06:24.635Z,2.50
2023-05-08T00:08:52.357Z,2.45
2023-05-08T00:11:19.245Z,2.75
2023-05-08T00:13:46.158Z,3.00
2023-05-08T00:16:13.289Z,3.45
2023-05-08T00:18:40.333Z,3.28
2023-05-08T00:21:07.433Z,3.47
2023-05-08T00:23:34.507Z,3.35
2023-05-08T00:26:01.535Z,3.20
2023-05-08T00:28:28.395Z,3.30
2023-05-08T00:30:55.227Z,3.88
2023-05-08T00:33:22.131Z,3.63
2023-05-08T00:35:49.021Z,3.38
2023-05-08T00:38:15.845Z,3.95
2023-05-08T00:40:43.416Z,4.35
2023-05-08T00:43:10.304Z,4.35
2023-05-08T00:45:40.028Z,2.45
2023-05-08T00:48:07.596Z,2.17
2023-05-08T00:50:35.282Z,2.50
2023-05-08T00:53:04.253Z,2.58
2023-05-08T00:55:32.875Z,2.80
2023-05-08T00:58:00.196Z,3.40
2023-05-08T01:00:27.367Z,3.55
2023-05-08T01:02:54.351Z,3.03
2023-05-08T01:05:21.503Z,2.88
2023-05-08T01:07:48.639Z,2.95
2023-05-08T01:10:16.346Z,3.00
2023-05-08T01:13:29.122Z,3.38
2023-05-08T01:16:09.741Z,2.97
2023-05-08T01:18:47.093Z,3.03
2023-05-08T01:21:43.572Z,2.63
2023-05-08T01:24:42.232Z,3.00
2023-05-08T01:28:05.622Z,2.40
2023-05-08T01:31:00.337Z,3.17
2023-05-08T01:33:35.782Z,2.75
2023-05-08T01:36:34.226Z,3.00
2023-05-08T01:39:21.370Z,3.10
2023-05-08T01:42:14.190Z,2.53
2023-05-08T01:45:07.434Z,2.80
2023-05-08T01:47:38.376Z,3.65
2023-05-08T01:50:15.344Z,3.50
2023-05-08T01:52:58.274Z,3.42
2023-05-08T01:55:32.012Z,3.67
2023-05-08T01:57:59.743Z,3.75
2023-05-08T02:00:28.499Z,4.15
2023-05-08T02:02:58.070Z,3.80
2023-05-08T02:05:27.546Z,3.95
2023-05-08T02:07:55.457Z,3.80
2023-05-08T02:10:25.668Z,3.65
2023-05-08T02:12:53.722Z,3.80
2023-05-08T02:15:22.418Z,3.60
2023-05-08T02:17:50.743Z,4.20
2023-05-08T02:20:20.148Z,3.83
2023-05-08T02:22:50.568Z,4.28
2023-05-08T02:25:18.246Z,4.10
2023-05-08T02:27:49.660Z,4.72
2023-05-08T02:30:18.455Z,5.28
2023-05-08T02:32:47.978Z,4.18
2023-05-08T02:35:19.902Z,5.35
2023-05-08T02:37:53.924Z,5.20
2023-05-08T02:40:22.847Z,4.43
2023-05-08T02:42:50.369Z,3.60
2023-05-08T02:45:17.404Z,2.92
2023-05-08T02:48:11.067Z,3.20
2023-05-08T02:51:21.074Z,3.35
2023-05-08T02:53:56.505Z,2.90
2023-05-08T02:56:49.903Z,3.28
2023-05-08T02:59:30.289Z,3.45
2023-05-08T03:02:08.465Z,4.07
2023-05-08T03:04:43.330Z,4.13
2023-05-08T03:07:11.125Z,4.05
2023-05-08T03:09:49.004Z,4.53
2023-05-08T03:12:22.283Z,4.10
2023-05-08T03:15:07.713Z,4.75
2023-05-08T03:17:39.049Z,4.78
2023-05-08T03:20:10.347Z,5.00
2023-05-08T03:22:38.726Z,4.75
2023-05-08T03:25:09.112Z,5.25
2023-05-08T03:27:38.292Z,5.03
2023-05-08T03:30:06.416Z,3.88
2023-05-08T03:32:37.105Z,4.65
2023-05-08T03:35:05.577Z,4.07
2023-05-08T03:37:32.711Z,4.80
2023-05-08T03:39:59.902Z,4.78
2023-05-08T03:42:27.380Z,5.00
2023-05-08T03:44:54.420Z,4.47
2023-05-08T03:47:24.148Z,4.03
2023-05-08T03:49:51.482Z,5.50
2023-05-08T03:52:18.617Z,5.57
2023-05-08T03:54:45.628Z,5.55
2023-05-08T03:57:13.126Z,5.45
2023-05-08T04:00:02.536Z,4.93
2023-05-08T04:02:57.646Z,5.00
2023-05-08T04:05:37.576Z,4.38
2023-05-08T04:08:40.750Z,4.22
2023-05-08T04:11:37.471Z,4.20
2023-05-08T04:14:08.317Z,4.28
2023-05-08T04:16:44.572Z,4.22
2023-05-08T04:19:23.612Z,4.28
2023-05-08T04:21:51.470Z,4.18
2023-05-08T04:24:20.946Z,4.05
2023-05-08T04:26:48.844Z,4.13
2023-05-08T04:29:17.753Z,3.97
2023-05-08T04:31:45.711Z,4.25
2023-05-08T04:34:13.126Z,4.22
2023-05-08T04:36:40.241Z,4.60
2023-05-08T04:39:07.933Z,4.30
2023-05-08T04:41:35.488Z,4.60
2023-05-08T04:44:05.395Z,4.28
2023-05-08T04:46:32.735Z,3.95
2023-05-08T04:48:59.685Z,3.85
2023-05-08T04:51:29.359Z,3.83
2023-05-08T04:53:56.232Z,4.10
2023-05-08T04:56:23.158Z,3.47
2023-05-08T04:58:51.035Z,3.97
2023-05-08T05:01:18.358Z,3.95
2023-05-08T05:03:45.677Z,4.10
2023-05-08T05:06:13.269Z,3.78
2023-05-08T05:08:40.142Z,4.10
2023-05-08T05:11:07.267Z,4.35
2023-05-08T05:13:34.100Z,4.10
2023-05-08T05:16:01.125Z,4.13
2023-05-08T05:18:28.425Z,3.88
2023-05-08T05:20:59.002Z,4.20
2023-05-08T05:23:26.158Z,4.47
2023-05-08T05:25:53.243Z,4.45
2023-05-08T05:28:20.262Z,4.32
2023-05-08T05:30:48.388Z,4.20
2023-05-08T05:33:15.331Z,4.93
2023-05-08T05:35:42.186Z,5.50
2023-05-08T05:38:09.060Z,4.20
2023-05-08T05:40:35.898Z,4.93
2023-05-08T05:43:02.807Z,4.95
2023-05-08T05:45:31.853Z,4.95
2023-05-08T05:48:00.488Z,5.40
2023-05-08T05:50:28.178Z,5.28
2023-05-08T05:52:56.601Z,4.93
2023-05-08T05:55:23.543Z,5.47
2023-05-08T05:57:51.287Z,5.23
2023-05-08T06:00:19.005Z,5.40
2023-05-08T06:02:50.148Z,5.53
2023-05-08T06:05:19.615Z,5.22
2023-05-08T06:07:46.578Z,5.32
2023-05-08T06:10:13.523Z,5.07
2023-05-08T06:12:40.576Z,4.80
2023-05-08T06:15:09.348Z,5.80
2023-05-08T06:17:36.503Z,5.97
2023-05-08T06:20:03.987Z,6.35
2023-05-08T06:22:30.853Z,6.20
2023-05-08T06:24:57.680Z,6.82
2023-05-08T06:27:25.157Z,6.72
2023-05-08T06:29:53.306Z,7.07
2023-05-08T06:32:21.115Z,6.72
2023-05-08T06:34:48.585Z,7.55
2023-05-08T06:37:15.521Z,6.90
2023-05-08T06:39:42.409Z,6.97
2023-05-08T06:42:09.430Z,6.38
2023-05-08T06:44:40.626Z,6.07
2023-05-08T06:47:08.253Z,6.65
2023-05-08T06:49:38.255Z,6.60
2023-05-08T06:54:31.972Z,10.05
2023-05-08T06:56:58.800Z,10.70
2023-05-08T06:59:25.708Z,12.52
2023-05-08T07:01:52.790Z,12.95
2023-05-08T07:04:19.605Z,12.43
2023-05-08T07:06:46.546Z,13.48
2023-05-08T07:09:13.471Z,11.43
2023-05-08T07:11:40.319Z,12.80
2023-05-08T07:14:07.132Z,12.80
2023-05-08T07:16:34.490Z,12.73
2023-05-08T07:19:01.366Z,13.50
2023-05-08T07:21:29.362Z,12.57
2023-05-08T07:23:56.200Z,11.43
2023-05-08T07:26:23.119Z,11.80
2023-05-08T07:28:50.817Z,10.95
2023-05-08T07:31:17.697Z,9.77
2023-05-08T07:33:44.622Z,10.18
2023-05-08T07:36:11.933Z,8.40
2023-05-08T07:38:38.804Z,8.70
2023-05-08T07:41:05.934Z,8.88
2023-05-08T07:43:32.994Z,9.93
2023-05-08T07:46:00.502Z,9.13
2023-05-08T07:48:27.353Z,9.77
2023-05-08T07:50:54.168Z,9.20
2023-05-08T07:53:21.041Z,8.63
2023-05-08T07:55:47.871Z,9.52
2023-05-08T07:58:14.673Z,7.72
2023-05-08T08:00:41.474Z,7.88
2023-05-08T08:03:08.271Z,6.95
2023-05-08T08:05:35.284Z,6.15
2023-05-08T08:08:02.176Z,6.35
2023-05-08T08:10:29.220Z,5.13
2023-05-08T08:12:56.183Z,5.43
2023-05-08T08:15:23.020Z,6.18
2023-05-08T08:17:49.900Z,6.18
2023-05-08T08:20:16.920Z,6.03
2023-05-08T08:22:43.728Z,5.97
2023-05-08T08:25:11.154Z,6.45
2023-05-08T08:27:38.134Z,6.03
2023-05-08T08:30:16.241Z,6.53
2023-05-08T08:32:44.797Z,6.57
2023-05-08T08:35:12.027Z,5.93
2023-05-08T08:37:39.488Z,6.07
2023-05-08T08:40:07.478Z,4.85
2023-05-08T08:42:34.479Z,5.35
2023-05-08T08:45:01.613Z,5.88
2023-05-08T08:47:30.157Z,5.25
2023-05-08T08:50:03.096Z,5.13
2023-05-08T08:52:54.326Z,6.10
2023-05-08T08:55:23.341Z,9.43
2023-05-08T08:58:21.315Z,4.63
2023-05-08T09:00:49.757Z,4.88
2023-05-08T09:03:17.217Z,4.45
2023-05-08T09:05:45.386Z,4.97
2023-05-08T09:08:12.799Z,4.50
2023-05-08T09:10:39.704Z,3.97
2023-05-08T09:13:06.744Z,4.38
2023-05-08T09:15:34.083Z,4.00
2023-05-08T09:18:04.313Z,4.00
2023-05-08T09:20:31.449Z,4.25
2023-05-08T09:23:01.516Z,4.40
2023-05-08T09:25:45.814Z,4.05
2023-05-08T09:28:30.713Z,4.10
2023-05-08T09:30:59.696Z,4.60
2023-05-08T09:33:29.247Z,4.57
2023-05-08T09:35:57.332Z,4.05
2023-05-08T09:38:41.780Z,3.67
2023-05-08T09:41:15.255Z,4.15
2023-05-08T09:44:00.756Z,4.25
2023-05-08T09:46:27.762Z,4.30
2023-05-08T09:48:59.623Z,3.55
2023-05-08T09:51:29.439Z,3.45
2023-05-08T09:53:59.086Z,3.88
2023-05-08T09:56:38.839Z,9.27
2023-05-08T09:59:22.924Z,3.95
2023-05-08T10:01:49.937Z,3.40
2023-05-08T10:04:16.776Z,2.92
2023-05-08T10:06:43.886Z,5.05
2023-05-08T10:09:14.969Z,3.65
2023-05-08T10:11:54.513Z,3.05
2023-05-08T10:14:23.122Z,3.47
2023-05-08T10:16:53.755Z,2.22
2023-05-08T10:19:23.566Z,2.13
2023-05-08T10:21:53.591Z,1.95
2023-05-08T10:24:30.886Z,1.88
2023-05-08T10:27:17.824Z,1.67
2023-05-08T10:29:56.349Z,2.20
2023-05-08T10:32:24.471Z,2.22
2023-05-08T10:34:59.457Z,1.90
2023-05-08T10:37:30.137Z,2.17
2023-05-08T10:39:58.699Z,2.28
2023-05-08T10:42:26.363Z,2.47
2023-05-08T10:44:54.517Z,2.60
2023-05-08T10:48:11.260Z,2.30
2023-05-08T10:51:01.571Z,2.58
2023-05-08T10:53:51.334Z,2.50
2023-05-08T10:58:44.937Z,2.67
2023-05-08T11:01:13.047Z,3.00
2023-05-08T11:03:46.296Z,2.88
2023-05-08T11:06:14.133Z,2.67
2023-05-08T11:08:51.117Z,2.80
2023-05-08T11:11:26.775Z,3.15
2023-05-08T11:14:14.943Z,2.85
2023-05-08T11:16:53.952Z,2.67
2023-05-08T11:19:23.081Z,2.70
2023-05-08T11:22:16.207Z,3.17
2023-05-08T11:24:49.106Z,2.63
2023-05-08T11:27:16.728Z,2.08
2023-05-08T11:29:44.903Z,2.33
2023-05-08T11:32:11.981Z,2.60
2023-05-08T11:34:41.880Z,3.10
2023-05-08T11:39:46.884Z,2.40
2023-05-08T11:42:26.699Z,2.83
2023-05-08T11:45:13.874Z,2.60
2023-05-08T11:47:45.369Z,3.13
2023-05-08T11:50:13.763Z,3.00
2023-05-08T11:52:43.198Z,3.65
2023-05-08T11:55:12.031Z,3.20
2023-05-08T11:57:38.878Z,3.10
2023-05-08T12:00:11.564Z,2.80
2023-05-08T12:02:41.862Z,2.30
2023-05-08T12:07:44.736Z,1.83
2023-05-08T12:10:12.311Z,2.10
2023-05-08T12:12:41.186Z,2.40
2023-05-08T12:15:12.180Z,2.13
2023-05-08T12:17:39.155Z,1.90
2023-05-08T12:20:18.276Z,2.35
2023-05-08T12:22:53.075Z,2.40
2023-05-08T12:25:20.451Z,2.25
2023-05-08T12:27:47.563Z,2.38
2023-05-08T12:30:16.502Z,2.22
2023-05-08T12:32:44.329Z,2.47
2023-05-08T12:35:13.169Z,2.60
2023-05-08T12:37:40.558Z,2.80
2023-05-08T12:40:24.602Z,3.00
2023-05-08T12:42:51.740Z,3.00
2023-05-08T12:45:28.128Z,3.20
2023-05-08T12:48:03.603Z,2.92
2023-05-08T12:50:41.984Z,3.47
2023-05-08T12:53:14.646Z,3.33
2023-05-08T12:55:55.081Z,3.28
2023-05-08T12:58:33.952Z,3.08
2023-05-08T13:01:13.223Z,2.87
2023-05-08T13:03:41.313Z,3.15
2023-05-08T13:06:21.126Z,3.25
2023-05-08T13:08:57.612Z,5.18
2023-05-08T13:11:32.963Z,5.10
2023-05-08T13:14:00.262Z,5.97
2023-05-08T13:16:27.284Z,5.68
2023-05-08T13:18:54.141Z,5.90
2023-05-08T13:21:20.997Z,5.60
2023-05-08T13:23:47.814Z,5.82
2023-05-08T13:26:14.597Z,6.15
2023-05-08T13:28:41.391Z,5.70
2023-05-08T13:31:08.166Z,5.78
2023-05-08T13:33:35.221Z,6.10
2023-05-08T13:36:02.173Z,6.25
2023-05-08T13:38:28.981Z,5.93
2023-05-08T13:40:56.051Z,5.95
2023-05-08T13:43:22.870Z,5.68
2023-05-08T13:45:49.690Z,6.60
2023-05-08T13:48:16.512Z,7.00
2023-05-08T13:50:43.308Z,6.82
2023-05-08T13:53:10.112Z,6.32
2023-05-08T13:55:37.449Z,6.07
2023-05-08T13:58:04.260Z,7.00
2023-05-08T14:00:31.094Z,6.60
2023-05-08T14:02:57.996Z,6.43
2023-05-08T14:05:24.858Z,6.70
2023-05-08T14:07:51.639Z,6.63
2023-05-08T14:10:18.493Z,6.95
2023-05-08T14:12:46.481Z,6.32
2023-05-08T14:15:13.542Z,6.70
2023-05-08T14:17:41.798Z,6.47
2023-05-08T14:20:11.586Z,6.47
2023-05-08T14:22:38.964Z,6.20
2023-05-08T14:25:06.892Z,6.05
2023-05-08T14:27:33.717Z,6.43
2023-05-08T14:30:00.506Z,6.78
2023-05-08T14:32:27.410Z,7.60
2023-05-08T14:34:54.196Z,7.25
2023-05-08T14:37:20.993Z,7.63
2023-05-08T14:39:47.842Z,7.35
2023-05-08T14:42:22.987Z,8.02
2023-05-08T14:44:51.240Z,8.23
2023-05-08T14:47:18.168Z,7.97
2023-05-08T14:49:44.988Z,8.45
2023-05-08T14:52:11.766Z,7.68
2023-05-08T14:54:38.707Z,9.13
2023-05-08T14:57:06.191Z,8.65
2023-05-08T14:59:33.043Z,8.95
2023-05-08T15:01:59.919Z,9.32
2023-05-08T15:04:26.899Z,8.27
2023-05-08T15:06:53.748Z,9.23
2023-05-08T15:09:20.524Z,8.57
2023-05-08T15:11:47.314Z,9.35
2023-05-08T15:14:14.135Z,9.35
2023-05-08T15:16:40.964Z,9.13
2023-05-08T15:19:09.386Z,8.63
2023-05-08T15:21:36.498Z,9.52
2023-05-08T15:24:03.399Z,9.48
2023-05-08T15:26:30.225Z,8.60
2023-05-08T15:28:57.041Z,9.05
2023-05-08T15:31:23.855Z,8.90
2023-05-08T15:33:50.880Z,9.45
2023-05-08T15:36:17.720Z,9.20
2023-05-08T15:38:44.580Z,9.07
2023-05-08T15:41:14.564Z,9.88
2023-05-08T15:43:43.140Z,9.05
2023-05-08T15:46:11.232Z,10.02
2023-05-08T15:48:38.202Z,7.90
2023-05-08T15:51:05.059Z,7.82
2023-05-08T15:53:34.075Z,8.73
2023-05-08T15:56:00.977Z,8.85
2023-05-08T15:58:27.787Z,8.57
2023-05-08T16:00:54.882Z,7.97
2023-05-08T16:03:21.992Z,8.73
2023-05-08T16:05:49.442Z,8.65
2023-05-08T16:08:16.278Z,9.27
2023-05-08T16:10:43.136Z,9.38
2023-05-08T16:13:09.985Z,9.88
2023-05-08T16:15:36.860Z,9.50
2023-05-08T16:18:03.995Z,9.60
2023-05-08T16:20:32.099Z,9.63
2023-05-08T16:23:00.464Z,10.25
2023-05-08T16:25:27.321Z,9.73
2023-05-08T16:27:54.246Z,10.15
2023-05-08T16:30:21.083Z,9.23
2023-05-08T16:32:48.064Z,9.77
2023-05-08T16:35:15.450Z,9.82
2023-05-08T16:37:42.970Z,9.15
2023-05-08T16:40:11.346Z,9.88
2023-05-08T16:42:38.501Z,9.60
2023-05-08T16:45:06.387Z,9.45
2023-05-08T16:47:34.859Z,9.48
2023-05-08T16:50:01.895Z,9.75
2023-05-08T16:52:29.040Z,10.07
2023-05-08T16:54:55.944Z,10.00
2023-05-08T16:57:22.788Z,9.95
2023-05-08T16:59:49.643Z,10.10
2023-05-08T17:02:18.682Z,8.88
2023-05-08T17:04:47.067Z,10.10
2023-05-08T17:07:15.005Z,10.27
2023-05-08T17:09:42.361Z,10.05
2023-05-08T17:12:09.760Z,9.57
2023-05-08T17:14:39.117Z,10.20
2023-05-08T17:17:06.345Z,9.90
2023-05-08T17:19:33.269Z,8.60
2023-05-08T17:22:00.233Z,9.57
2023-05-08T17:24:27.460Z,8.60
2023-05-08T17:26:54.295Z,8.85
2023-05-08T17:29:21.140Z,8.98
2023-05-08T17:31:48.104Z,9.70
2023-05-08T17:34:15.229Z,9.40
2023-05-08T17:36:42.262Z,9.55
2023-05-08T17:39:09.168Z,9.38
2023-05-08T17:41:36.003Z,9.57
2023-05-08T17:44:04.106Z,10.05
2023-05-08T17:46:30.923Z,9.68
2023-05-08T17:48:57.722Z,10.15
2023-05-08T17:51:25.680Z,9.88
2023-05-08T17:53:53.074Z,9.65
2023-05-08T17:56:23.042Z,8.85
2023-05-08T18:01:19.792Z,9.48
2023-05-08T18:03:48.272Z,10.23
2023-05-08T18:06:18.685Z,9.63
2023-05-08T18:08:46.688Z,9.77
2023-05-08T18:11:23.051Z,9.20
2023-05-08T18:13:52.272Z,10.85
2023-05-08T18:16:21.479Z,10.48
2023-05-08T18:18:49.449Z,9.65
2023-05-08T18:21:16.455Z,10.52
2023-05-08T18:23:43.339Z,9.73
2023-05-08T18:26:14.759Z,9.63
2023-05-08T18:28:41.924Z,9.75
2023-05-08T18:31:08.780Z,10.20
2023-05-08T18:33:36.928Z,10.52
2023-05-08T18:36:07.413Z,9.93
2023-05-08T18:38:34.961Z,12.15
2023-05-08T18:41:06.043Z,12.50
2023-05-08T18:43:33.197Z,11.52
2023-05-08T18:46:00.671Z,12.10
2023-05-08T18:48:27.669Z,10.93
2023-05-08T18:50:58.229Z,9.90
2023-05-08T18:53:25.183Z,9.98
2023-05-08T18:55:52.874Z,10.65
2023-05-08T18:58:19.849Z,12.10
2023-05-08T19:00:46.790Z,9.77
2023-05-08T19:03:14.029Z,12.85
2023-05-08T19:05:41.842Z,17.48
2023-05-08T19:08:08.696Z,14.40
2023-05-08T19:10:35.503Z,12.23
2023-05-08T19:13:02.375Z,12.85
2023-05-08T19:15:29.300Z,11.15
2023-05-08T19:17:56.227Z,11.23
2023-05-08T19:20:23.135Z,11.35
2023-05-08T19:22:50.013Z,12.45
2023-05-08T19:25:16.895Z,10.20
2023-05-08T19:27:43.715Z,9.57
2023-05-08T19:30:11.153Z,9.60
2023-05-08T19:32:38.040Z,8.48
2023-05-08T19:35:06.485Z,9.88
2023-05-08T19:37:33.266Z,8.73
2023-05-08T19:40:00.190Z,10.50
2023-05-08T19:42:27.014Z,7.30
2023-05-08T19:44:53.786Z,8.35
2023-05-08T19:47:20.690Z,10.25
2023-05-08T19:49:47.508Z,7.53
2023-05-08T19:52:14.315Z,9.90
2023-05-08T19:54:41.234Z,10.15
2023-05-08T19:57:08.040Z,11.77
2023-05-08T19:59:34.870Z,11.00
2023-05-08T20:02:02.024Z,9.82
2023-05-08T20:04:29.164Z,10.77
2023-05-08T20:06:56.055Z,11.93
2023-05-08T20:09:23.873Z,11.43
2023-05-08T20:11:50.709Z,11.25
2023-05-08T20:14:17.506Z,11.18
2023-05-08T20:16:44.456Z,10.32
2023-05-08T20:19:11.393Z,11.85
2023-05-08T20:21:38.207Z,9.02
2023-05-08T20:24:05.705Z,10.07
2023-05-08T20:26:32.724Z,9.93
2023-05-08T20:29:00.979Z,8.13
2023-05-08T20:31:29.415Z,8.65
2023-05-08T20:33:56.827Z,8.40
2023-05-08T20:36:23.614Z,9.98
2023-05-08T20:38:51.144Z,12.20
2023-05-08T20:41:17.914Z,10.65
2023-05-08T20:43:45.214Z,8.85
2023-05-08T20:46:12.041Z,6.57
2023-05-08T20:48:38.860Z,8.32
2023-05-08T20:51:05.819Z,7.43
2023-05-08T20:53:32.721Z,8.30
2023-05-08T20:56:01.607Z,7.57
2023-05-08T20:58:28.435Z,10.55
2023-05-08T21:00:55.303Z,13.32
2023-05-08T21:03:22.413Z,7.55
2023-05-08T21:05:49.294Z,9.65
2023-05-08T21:08:16.163Z,6.82
2023-05-08T21:10:42.961Z,7.07
2023-05-08T21:13:09.850Z,6.78
2023-05-08T21:15:36.738Z,7.25
2023-05-08T21:18:03.694Z,7.40
2023-05-08T21:20:33.756Z,7.40
2023-05-08T21:23:00.567Z,7.38
2023-05-08T21:25:27.372Z,7.40
2023-05-08T21:27:55.381Z,7.97
2023-05-08T21:30:22.425Z,7.00
2023-05-08T21:32:49.295Z,7.22
2023-05-08T21:35:16.462Z,6.50
2023-05-08T21:37:43.476Z,6.15
2023-05-08T21:40:10.566Z,5.60
2023-05-08T21:42:38.660Z,5.13
2023-05-08T21:45:06.219Z,5.20
2023-05-08T21:47:33.066Z,5.07
2023-05-08T21:49:59.894Z,5.63
2023-05-08T21:52:26.786Z,5.30
2023-05-08T21:54:53.724Z,4.97
2023-05-08T21:57:20.510Z,5.35
2023-05-08T21:59:49.055Z,4.78
2023-05-08T22:02:16.434Z,5.05
2023-05-08T22:04:43.293Z,4.78
2023-05-08T22:07:10.099Z,5.15
2023-05-08T22:09:36.990Z,4.85
2023-05-08T22:12:04.002Z,4.55
2023-05-08T22:14:30.827Z,5.45
2023-05-08T22:16:57.646Z,5.75
2023-05-08T22:19:24.479Z,6.25
2023-05-08T22:21:51.416Z,6.30
2023-05-08T22:24:19.056Z,7.22
2023-05-08T22:26:46.032Z,7.00
2023-05-08T22:29:12.890Z,7.13
2023-05-08T22:31:39.712Z,6.30
2023-05-08T22:34:06.647Z,7.10
2023-05-08T22:36:33.445Z,6.93
2023-05-08T22:39:00.973Z,6.82
2023-05-08T22:41:30.427Z,6.40
2023-05-08T22:43:57.394Z,6.30
2023-05-08T22:46:24.608Z,6.28
2023-05-08T22:48:54.344Z,6.45
2023-05-08T22:51:21.166Z,7.00
2023-05-08T22:53:48.045Z,6.28
2023-05-08T22:56:14.854Z,5.68
2023-05-08T22:58:41.627Z,6.47
2023-05-08T23:01:08.537Z,6.30
2023-05-08T23:03:35.807Z,5.95
2023-05-08T23:06:02.735Z,7.00
2023-05-08T23:08:29.518Z,6.93
2023-05-08T23:10:56.309Z,7.00
2023-05-08T23:13:23.164Z,6.88
2023-05-08T23:15:49.955Z,7.15
2023-05-08T23:18:16.758Z,7.20
2023-05-08T23:20:43.531Z,6.38
2023-05-08T23:23:10.616Z,7.30
2023-05-08T23:25:37.633Z,7.50
2023-05-08T23:28:04.462Z,7.03
2023-05-08T23:30:31.231Z,7.38
2023-05-08T23:32:58.094Z,6.75
2023-05-08T23:35:25.021Z,7.45
2023-05-08T23:37:51.844Z,7.32
2023-05-08T23:40:18.617Z,7.78
2023-05-08T23:42:45.397Z,7.22
2023-05-08T23:45:12.558Z,7.40
2023-05-08T23:47:39.595Z,7.15
2023-05-08T23:50:07.014Z,7.93
2023-05-08T23:52:33.790Z,8.13
2023-05-08T23:55:00.655Z,6.82
2023-05-08T23:57:27.457Z,7.40
2023-05-08T23:59:54.314Z,7.38
